Time;durP1;ratioP1;P1;durP2;ratioP2;P2;SDS_P1;SDS_P2;PMS_P1;PMS_P2;Temp;Humidity;BMP_temperature;BMP_pressure;BME280_temperature;BME280_humidity;BME280_pressure;Samples;Min_cycle;Max_cycle;Signal;HPM_P1;HPM_P2
2022/05/21 00:02:03;;;;;;;15.00;13.50;;;11.80;99.90;;;;;;5083774;28;20464;-66
2022/05/21 00:04:30;;;;;;;14.40;12.77;;;11.80;99.90;;;;;;5083423;28;20501;-67
2022/05/21 00:07:00;;;;;;;16.87;12.50;;;11.80;99.90;;;;;;5077081;28;20460;-67
2022/05/21 00:09:28;;;;;;;13.10;12.00;;;11.80;99.90;;;;;;5080805;28;20466;-66
2022/05/21 00:11:56;;;;;;;13.53;12.23;;;11.90;99.90;;;;;;5074863;28;20464;-67
2022/05/21 00:14:24;;;;;;;15.37;13.77;;;11.90;99.90;;;;;;5080496;28;20499;-68
2022/05/21 00:16:51;;;;;;;14.60;13.10;;;11.90;99.90;;;;;;5080194;28;20466;-66
2022/05/21 00:19:19;;;;;;;15.93;13.17;;;11.90;99.90;;;;;;5081731;28;20466;-67
2022/05/21 00:21:46;;;;;;;15.80;13.30;;;11.90;99.90;;;;;;5078049;28;20876;-67
2022/05/21 00:24:14;;;;;;;14.50;13.20;;;11.90;99.90;;;;;;5079656;28;20469;-67
2022/05/21 00:26:43;;;;;;;14.77;13.27;;;11.90;99.90;;;;;;5077693;28;20490;-67
2022/05/21 00:29:10;;;;;;;18.33;13.33;;;11.80;99.90;;;;;;5079104;28;20504;-67
2022/05/21 00:31:37;;;;;;;17.67;14.40;;;11.80;99.90;;;;;;5087103;28;20458;-66
2022/05/21 00:34:04;;;;;;;14.47;12.40;;;11.80;99.90;;;;;;5084222;28;20882;-66
2022/05/21 00:36:31;;;;;;;15.03;13.53;;;11.80;99.90;;;;;;5076488;28;20469;-67
2022/05/21 00:38:58;;;;;;;15.37;13.80;;;11.90;99.90;;;;;;5078054;28;20472;-67
2022/05/21 00:41:26;;;;;;;14.47;12.93;;;11.80;99.90;;;;;;5081386;28;20469;-67
2022/05/21 00:43:56;;;;;;;15.63;14.07;;;11.80;99.90;;;;;;5082743;28;20463;-68
2022/05/21 00:46:25;;;;;;;16.40;13.37;;;11.80;99.90;;;;;;5080644;28;20512;-68
2022/05/21 00:48:57;;;;;;;16.03;14.43;;;11.80;99.90;;;;;;5085934;28;20480;-67
2022/05/21 00:51:29;;;;;;;14.67;13.30;;;11.80;99.90;;;;;;5077340;28;20523;-67
2022/05/21 00:53:59;;;;;;;15.77;13.90;;;11.70;99.90;;;;;;5079758;28;20501;-66
2022/05/21 00:56:30;;;;;;;15.00;13.43;;;11.80;99.90;;;;;;5073271;28;20457;-68
2022/05/21 01:01:46;;;;;;;14.57;13.20;;;11.70;99.90;;;;;;5076310;28;20497;-68
2022/05/21 01:04:13;;;;;;;15.97;13.30;;;11.70;99.90;;;;;;5077988;28;20469;-67
2022/05/21 01:06:42;;;;;;;14.10;12.63;;;11.70;99.90;;;;;;5082415;28;20469;-67
2022/05/21 01:09:10;;;;;;;17.17;13.23;;;11.70;99.90;;;;;;5078717;28;20469;-67
2022/05/21 01:11:39;;;;;;;15.23;13.53;;;11.80;99.90;;;;;;5078462;28;20458;-67
2022/05/21 01:14:08;;;;;;;18.50;12.47;;;11.70;99.90;;;;;;5074721;28;20470;-67
2022/05/21 01:16:36;;;;;;;14.97;13.30;;;11.70;99.90;;;;;;5078752;28;21166;-67
2022/05/21 01:19:07;;;;;;;14.43;12.20;;;11.70;99.90;;;;;;5077651;28;20472;-68
2022/05/21 01:21:34;;;;;;;14.40;11.70;;;11.70;99.90;;;;;;5074573;28;20545;-68
2022/05/21 01:24:03;;;;;;;15.50;12.80;;;11.60;99.90;;;;;;5079512;28;20511;-68
2022/05/21 01:26:30;;;;;;;20.33;13.13;;;11.60;99.90;;;;;;5074117;28;20454;-68
2022/05/21 01:28:59;;;;;;;13.93;11.87;;;11.70;99.90;;;;;;5077645;28;20457;-67
2022/05/21 01:31:26;;;;;;;14.13;11.50;;;11.70;99.90;;;;;;5077979;28;20568;-68
2022/05/21 01:33:54;;;;;;;16.60;12.43;;;11.60;99.90;;;;;;5079063;28;20894;-68
2022/05/21 01:36:21;;;;;;;16.30;11.10;;;11.60;99.90;;;;;;5071805;28;20813;-68
2022/05/21 01:38:49;;;;;;;12.10;11.10;;;11.60;99.90;;;;;;5077591;28;20458;-68
2022/05/21 01:41:17;;;;;;;13.43;10.07;;;11.60;99.90;;;;;;5079701;28;20555;-68
2022/05/21 01:46:29;;;;;;;13.73;11.10;;;11.60;99.90;;;;;;5055761;28;21000;-68
2022/05/21 01:48:57;;;;;;;10.60;9.60;;;11.60;99.90;;;;;;5057398;28;20981;-68
2022/05/21 01:51:24;;;;;;;12.70;10.53;;;11.60;99.90;;;;;;5053432;28;20467;-68
2022/05/21 01:53:51;;;;;;;14.30;10.33;;;11.50;99.90;;;;;;5050830;28;20471;-68
2022/05/21 01:56:20;;;;;;;12.40;9.33;;;11.50;99.90;;;;;;5050637;28;20495;-69
2022/05/21 01:58:47;;;;;;;10.43;9.53;;;11.50;99.90;;;;;;5053528;28;20460;-68
2022/05/21 02:01:14;;;;;;;14.83;9.90;;;11.50;99.90;;;;;;5053112;28;20466;-68
2022/05/21 02:03:41;;;;;;;13.70;9.60;;;11.50;99.90;;;;;;5053720;28;20471;-68
2022/05/21 02:06:08;;;;;;;15.70;9.60;;;11.40;99.90;;;;;;5059303;28;20493;-69
2022/05/21 02:08:36;;;;;;;10.50;9.30;;;11.40;99.90;;;;;;5050920;28;20460;-68
2022/05/21 02:11:04;;;;;;;9.67;8.77;;;11.40;99.90;;;;;;5054338;28;20466;-68
2022/05/21 02:13:35;;;;;;;14.80;9.30;;;11.40;99.90;;;;;;5054328;28;20461;-68
2022/05/21 02:16:04;;;;;;;16.83;10.50;;;11.30;99.90;;;;;;5054545;28;20943;-69
2022/05/21 02:18:31;;;;;;;15.13;9.00;;;11.40;99.90;;;;;;5052158;28;20469;-68
2022/05/21 02:20:58;;;;;;;11.70;9.53;;;11.40;99.90;;;;;;5053878;28;20459;-70
2022/05/21 02:23:25;;;;;;;9.80;8.87;;;11.30;99.90;;;;;;5054342;28;20473;-68
2022/05/21 02:25:53;;;;;;;10.17;9.27;;;11.30;99.90;;;;;;5061035;28;20532;-67
2022/05/21 02:28:20;;;;;;;10.00;9.00;;;11.30;99.90;;;;;;5054413;28;20842;-69
2022/05/21 02:30:48;;;;;;;9.47;8.67;;;11.30;99.90;;;;;;5060558;28;20991;-68
2022/05/21 02:33:15;;;;;;;14.33;9.37;;;11.30;99.90;;;;;;5053813;28;20470;-67
2022/05/21 02:35:43;;;;;;;9.67;8.77;;;11.30;99.90;;;;;;5057047;28;20490;-68
2022/05/21 02:40:55;;;;;;;10.47;9.40;;;11.20;99.90;;;;;;5054864;28;20536;-68
2022/05/21 02:43:23;;;;;;;10.53;8.97;;;11.20;99.90;;;;;;5054341;28;20986;-69
2022/05/21 02:45:52;;;;;;;9.10;8.10;;;11.30;99.90;;;;;;5074262;28;21153;-67
2022/05/21 02:48:19;;;;;;;8.53;7.83;;;11.40;99.90;;;;;;5082209;28;20486;-68
2022/05/21 02:50:47;;;;;;;15.70;7.90;;;11.40;99.90;;;;;;5069606;28;20461;-68
2022/05/21 02:53:18;;;;;;;7.90;7.20;;;11.50;99.90;;;;;;5076998;28;20463;-68
2022/05/21 02:55:46;;;;;;;14.47;8.70;;;11.50;99.90;;;;;;5076903;28;21026;-68
2022/05/21 02:58:14;;;;;;;16.30;8.40;;;11.50;99.90;;;;;;5075872;28;20446;-69
2022/05/21 03:00:44;;;;;;;11.40;7.80;;;11.50;99.90;;;;;;5079277;28;20464;-68
2022/05/21 03:03:13;;;;;;;16.03;7.87;;;11.50;99.90;;;;;;5076537;28;20937;-69
2022/05/21 03:05:40;;;;;;;12.63;7.80;;;11.60;99.90;;;;;;5075302;28;20515;-68
2022/05/21 03:10:51;;;;;;;10.10;7.10;;;11.70;99.90;;;;;;5074654;28;20450;-68
2022/05/21 03:13:21;;;;;;;10.00;7.80;;;11.70;99.90;;;;;;5080369;28;20577;-68
2022/05/21 03:15:49;;;;;;;8.40;7.63;;;11.70;99.90;;;;;;5082556;28;20488;-69
2022/05/21 03:18:17;;;;;;;7.70;7.00;;;11.80;99.90;;;;;;5082600;28;20453;-68
2022/05/21 03:20:45;;;;;;;18.30;8.27;;;11.70;99.90;;;;;;5078057;28;20463;-69
2022/05/21 03:23:13;;;;;;;12.93;7.10;;;11.80;99.90;;;;;;5082138;28;20523;-68
2022/05/21 03:25:41;;;;;;;8.57;7.77;;;11.80;99.90;;;;;;5080798;28;20467;-69
2022/05/21 03:28:08;;;;;;;8.27;6.93;;;11.90;99.90;;;;;;5080762;28;20786;-68
2022/05/21 03:30:35;;;;;;;12.83;7.20;;;12.00;99.90;;;;;;5081279;28;20517;-68
2022/05/21 03:33:02;;;;;;;10.57;7.17;;;12.10;99.90;;;;;;5074588;28;20457;-68
2022/05/21 03:35:33;;;;;;;12.47;7.23;;;12.20;99.90;;;;;;5082577;28;20980;-69
2022/05/21 03:38:01;;;;;;;8.73;7.00;;;12.20;99.90;;;;;;5081601;28;20461;-68
2022/05/21 03:40:31;;;;;;;8.33;7.63;;;12.30;99.90;;;;;;5079060;28;21015;-68
2022/05/21 03:42:58;;;;;;;14.67;7.37;;;12.30;99.90;;;;;;5085221;28;20458;-68
2022/05/21 03:45:27;;;;;;;8.37;7.43;;;12.30;99.90;;;;;;5079691;28;20486;-68
2022/05/21 03:47:55;;;;;;;8.40;7.60;;;12.40;99.90;;;;;;5081835;28;20484;-69
2022/05/21 03:50:31;;;;;;;8.43;7.53;;;12.40;99.90;;;;;;5078533;28;20463;-68
2022/05/21 03:52:59;;;;;;;8.50;7.70;;;12.50;99.90;;;;;;5076500;28;20462;-70
2022/05/21 03:55:27;;;;;;;10.90;9.00;;;12.50;99.90;;;;;;5078967;28;21014;-69
2022/05/21 03:57:54;;;;;;;8.83;8.10;;;12.50;99.90;;;;;;5077993;28;20462;-69
2022/05/21 04:00:22;;;;;;;11.87;8.60;;;12.60;99.90;;;;;;5076834;28;20477;-68
2022/05/21 04:02:49;;;;;;;14.03;9.13;;;12.50;99.90;;;;;;5073382;28;20471;-68
2022/05/21 04:05:17;;;;;;;11.37;8.33;;;12.50;99.90;;;;;;5050157;28;20572;-68
2022/05/21 04:07:44;;;;;;;9.97;8.97;;;12.60;99.90;;;;;;5047034;28;20454;-69
2022/05/21 04:10:14;;;;;;;12.00;9.00;;;12.60;99.90;;;;;;5048346;28;20463;-68
2022/05/21 04:12:41;;;;;;;9.47;8.50;;;12.60;99.90;;;;;;5049175;28;20458;-68
2022/05/21 04:15:10;;;;;;;9.30;8.50;;;12.60;99.90;;;;;;5048489;28;20497;-68
2022/05/21 04:17:37;;;;;;;10.70;8.67;;;12.70;99.90;;;;;;5047551;28;20562;-68
2022/05/21 04:20:06;;;;;;;11.23;8.30;;;12.60;99.90;;;;;;5040816;28;21063;-68
2022/05/21 04:22:33;;;;;;;7.93;7.33;;;12.60;99.90;;;;;;5049088;28;20467;-68
2022/05/21 04:25:01;;;;;;;9.83;8.83;;;12.60;99.90;;;;;;5048601;28;21086;-68
2022/05/21 04:27:29;;;;;;;10.40;8.50;;;12.60;99.90;;;;;;5045105;28;20871;-68
2022/05/21 04:29:55;;;;;;;9.33;8.43;;;12.70;99.90;;;;;;5048310;28;20471;-69
2022/05/21 04:32:22;;;;;;;14.03;8.30;;;12.80;99.90;;;;;;5047973;28;20821;-68
2022/05/21 04:34:49;;;;;;;13.70;9.37;;;12.70;99.90;;;;;;5045550;28;20462;-70
2022/05/21 04:37:16;;;;;;;12.93;10.07;;;12.80;99.90;;;;;;5045675;28;20459;-68
2022/05/21 04:39:43;;;;;;;17.37;8.70;;;12.80;99.90;;;;;;5046099;28;20565;-68
2022/05/21 04:42:10;;;;;;;9.73;8.43;;;12.90;99.90;;;;;;5044268;28;20459;-69
2022/05/21 04:44:38;;;;;;;13.93;10.00;;;12.90;99.90;;;;;;5046004;28;20493;-68
2022/05/21 04:47:05;;;;;;;10.77;9.67;;;12.80;99.90;;;;;;5045714;28;20938;-68
2022/05/21 04:49:32;;;;;;;9.90;8.90;;;12.90;99.90;;;;;;5045410;28;21214;-68
2022/05/21 04:52:02;;;;;;;10.30;9.40;;;12.90;99.90;;;;;;5045921;28;20939;-68
2022/05/21 04:54:29;;;;;;;9.47;8.73;;;12.90;99.90;;;;;;5038027;28;20979;-68
2022/05/21 04:56:56;;;;;;;10.40;9.47;;;12.90;99.90;;;;;;5044914;28;20498;-67
2022/05/21 04:59:23;;;;;;;11.90;10.70;;;13.00;99.90;;;;;;5047069;28;20469;-68
2022/05/21 05:01:51;;;;;;;10.10;9.20;;;13.00;99.90;;;;;;5045687;28;20594;-69
2022/05/21 05:04:19;;;;;;;13.43;10.37;;;12.90;99.90;;;;;;5046049;28;20464;-68
2022/05/21 05:06:45;;;;;;;18.33;9.77;;;12.70;99.90;;;;;;5065598;28;20660;-67
2022/05/21 05:09:12;;;;;;;9.77;9.00;;;12.80;99.90;;;;;;5079373;28;20866;-68
2022/05/21 05:11:39;;;;;;;9.63;8.83;;;12.90;99.90;;;;;;5074952;28;20816;-67
2022/05/21 05:14:06;;;;;;;9.90;9.00;;;12.80;99.90;;;;;;5052186;28;21112;-67
2022/05/21 05:16:33;;;;;;;9.27;8.43;;;12.70;99.90;;;;;;5037089;28;20960;-67
2022/05/21 05:19:01;;;;;;;11.17;10.10;;;12.80;99.90;;;;;;5045781;28;20826;-67
2022/05/21 05:21:29;;;;;;;20.07;9.27;;;12.90;99.90;;;;;;5037292;28;20459;-67
2022/05/21 05:23:55;;;;;;;10.60;9.60;;;12.90;99.90;;;;;;5045165;28;20455;-67
2022/05/21 05:26:23;;;;;;;10.30;9.20;;;13.00;99.90;;;;;;5044886;28;20803;-68
2022/05/21 05:28:51;;;;;;;11.10;9.53;;;13.00;99.90;;;;;;5046034;28;20869;-67
2022/05/21 05:31:18;;;;;;;10.30;9.20;;;13.10;99.90;;;;;;5045943;28;20557;-69
2022/05/21 05:33:45;;;;;;;10.13;9.20;;;13.10;99.90;;;;;;5046125;28;20873;-68
2022/05/21 05:36:13;;;;;;;15.20;9.57;;;13.10;99.90;;;;;;5044978;28;20492;-68
2022/05/21 05:38:40;;;;;;;11.07;9.63;;;12.80;99.90;;;;;;5044188;28;20525;-67
2022/05/21 05:41:08;;;;;;;14.53;10.40;;;13.00;99.90;;;;;;5050955;28;20474;-67
2022/05/21 05:43:35;;;;;;;13.17;10.63;;;13.00;99.90;;;;;;5082357;28;20458;-67
2022/05/21 05:46:02;;;;;;;11.23;10.07;;;13.00;99.90;;;;;;5075322;28;20493;-68
2022/05/21 05:48:30;;;;;;;13.47;10.40;;;13.00;99.90;;;;;;5044620;28;20466;-68
2022/05/21 05:50:57;;;;;;;14.03;10.00;;;13.10;99.90;;;;;;5045542;28;20466;-67
2022/05/21 05:53:26;;;;;;;13.40;10.10;;;13.10;99.90;;;;;;5044386;28;21111;-69
2022/05/21 05:55:53;;;;;;;12.20;10.90;;;13.20;99.90;;;;;;5042342;28;21491;-69
2022/05/21 06:01:07;;;;;;;12.87;11.37;;;13.30;99.90;;;;;;5041523;28;20473;-69
2022/05/21 06:03:34;;;;;;;15.57;11.33;;;13.20;99.90;;;;;;5042150;28;20454;-68
2022/05/21 06:06:02;;;;;;;14.47;10.77;;;13.40;99.90;;;;;;5040623;28;20528;-67
2022/05/21 06:08:30;;;;;;;13.10;10.90;;;13.30;99.90;;;;;;5030794;28;20475;-68
2022/05/21 06:10:59;;;;;;;12.33;11.10;;;13.40;99.90;;;;;;5041346;28;20617;-67
2022/05/21 06:13:26;;;;;;;13.57;11.50;;;13.30;99.90;;;;;;5040285;28;20467;-68
2022/05/21 06:15:53;;;;;;;13.53;10.93;;;13.50;99.90;;;;;;5040192;28;20486;-69
2022/05/21 06:18:21;;;;;;;14.23;11.40;;;13.60;99.90;;;;;;5034428;28;20503;-68
2022/05/21 06:20:50;;;;;;;12.63;11.33;;;13.80;99.90;;;;;;5042798;28;20463;-68
2022/05/21 06:23:17;;;;;;;14.20;12.03;;;13.80;99.90;;;;;;5034846;28;20468;-68
2022/05/21 06:25:46;;;;;;;13.63;11.47;;;13.90;99.90;;;;;;5043638;28;20616;-67
2022/05/21 06:28:14;;;;;;;16.17;12.90;;;13.80;99.90;;;;;;5043341;28;20495;-68
2022/05/21 06:30:42;;;;;;;13.77;12.40;;;13.90;99.90;;;;;;5042375;28;20600;-68
2022/05/21 06:33:14;;;;;;;14.30;11.57;;;14.10;99.90;;;;;;5043700;28;20466;-67
2022/05/21 06:35:41;;;;;;;12.70;11.13;;;14.20;99.90;;;;;;5037746;28;20483;-68
2022/05/21 06:38:08;;;;;;;15.37;12.00;;;14.20;99.90;;;;;;5039715;28;20465;-68
2022/05/21 06:40:35;;;;;;;22.83;13.23;;;14.20;99.90;;;;;;5042044;28;20475;-68
2022/05/21 06:43:04;;;;;;;16.43;13.17;;;14.20;99.90;;;;;;5041154;28;20467;-68
2022/05/21 06:45:31;;;;;;;16.03;13.80;;;14.30;99.90;;;;;;5026629;28;20510;-68
2022/05/21 06:48:01;;;;;;;16.77;13.10;;;14.30;99.90;;;;;;5022760;28;20459;-68
2022/05/21 06:50:28;;;;;;;18.90;13.70;;;14.30;99.90;;;;;;5024559;28;20474;-68
2022/05/21 06:52:55;;;;;;;20.43;12.60;;;14.30;99.90;;;;;;5022981;28;20522;-67
2022/05/21 06:55:22;;;;;;;14.73;13.27;;;14.30;99.90;;;;;;5023084;28;21039;-68
2022/05/21 06:57:49;;;;;;;18.50;14.40;;;14.30;99.90;;;;;;5022848;28;20510;-69
2022/05/21 07:00:19;;;;;;;14.07;12.20;;;14.30;99.90;;;;;;5023747;28;20479;-68
2022/05/21 07:02:45;;;;;;;23.60;13.37;;;14.20;99.90;;;;;;5020832;28;21999;-68
2022/05/21 07:07:57;;;;;;;12.63;11.40;;;14.30;99.90;;;;;;5022963;28;20493;-67
2022/05/21 07:10:25;;;;;;;19.47;12.20;;;14.50;99.90;;;;;;5022931;28;20467;-66
2022/05/21 07:12:53;;;;;;;15.40;12.57;;;14.60;99.90;;;;;;5025801;28;20989;-68
2022/05/21 07:15:21;;;;;;;15.27;12.53;;;14.50;99.90;;;;;;5024836;28;21021;-69
2022/05/21 07:17:49;;;;;;;13.03;11.73;;;14.50;99.90;;;;;;5025830;28;20574;-66
2022/05/21 07:20:19;;;;;;;19.37;12.57;;;14.40;99.90;;;;;;5026642;28;20464;-67
2022/05/21 07:22:48;;;;;;;16.13;11.60;;;14.70;99.90;;;;;;5026919;28;20463;-68
2022/05/21 07:25:18;;;;;;;13.97;12.40;;;14.90;99.90;;;;;;5028321;28;20460;-68
2022/05/21 07:27:44;;;;;;;13.90;12.33;;;15.10;99.90;;;;;;5027076;28;20958;-67
2022/05/21 07:30:13;;;;;;;14.33;12.43;;;15.30;99.90;;;;;;5028254;28;20797;-69
2022/05/21 07:32:44;;;;;;;13.43;12.20;;;15.50;99.90;;;;;;5027383;28;20468;-68
2022/05/21 07:35:18;;;;;;;17.87;12.67;;;15.50;99.90;;;;;;5027868;28;20994;-66
2022/05/21 07:37:45;;;;;;;14.00;12.60;;;15.80;99.90;;;;;;5026673;28;21502;-67
2022/05/21 07:40:14;;;;;;;17.67;12.63;;;16.00;99.90;;;;;;5028351;28;20460;-67
2022/05/21 07:42:41;;;;;;;14.70;12.83;;;16.10;99.90;;;;;;5027943;28;20572;-68
2022/05/21 07:45:15;;;;;;;18.33;13.60;;;16.10;99.90;;;;;;5039477;28;20478;-66
2022/05/21 07:47:43;;;;;;;14.67;13.20;;;16.00;99.90;;;;;;5047884;28;21402;-67
2022/05/21 07:50:11;;;;;;;16.47;14.60;;;16.10;99.90;;;;;;5047151;28;20679;-67
2022/05/21 07:52:38;;;;;;;17.57;14.10;;;16.20;99.90;;;;;;5041969;28;20842;-67
2022/05/21 07:55:06;;;;;;;25.80;14.33;;;16.20;99.90;;;;;;5041955;28;20452;-68
2022/05/21 07:57:33;;;;;;;15.17;13.73;;;16.20;99.90;;;;;;5045037;28;20503;-66
2022/05/21 07:59:59;;;;;;;15.07;13.40;;;16.00;99.90;;;;;;5046347;28;20473;-66
2022/05/21 08:02:26;;;;;;;17.43;14.00;;;16.00;99.90;;;;;;5046135;28;20469;-68
2022/05/21 08:04:55;;;;;;;20.10;14.23;;;16.20;99.90;;;;;;5045647;28;20473;-66
2022/05/21 08:07:22;;;;;;;15.43;14.10;;;16.40;99.90;;;;;;5045218;28;20478;-67
2022/05/21 08:09:49;;;;;;;13.90;12.67;;;16.40;99.90;;;;;;5047805;28;20671;-66
2022/05/21 08:12:17;;;;;;;14.83;13.40;;;16.80;99.90;;;;;;5046480;28;21154;-66
2022/05/21 08:14:44;;;;;;;18.50;14.47;;;16.90;99.90;;;;;;5046598;28;20915;-67
2022/05/21 08:17:12;;;;;;;15.07;13.63;;;17.10;99.90;;;;;;5046389;28;20721;-68
2022/05/21 08:19:40;;;;;;;15.53;13.93;;;17.40;99.90;;;;;;5043045;28;20846;-67
2022/05/21 08:27:38;;;;;;;17.20;15.50;;;17.90;99.90;;;;;;5036285;28;20551;-68
2022/05/21 08:30:07;;;;;;;17.30;15.50;;;17.70;99.90;;;;;;5040249;28;21209;-66
2022/05/21 08:32:34;;;;;;;18.93;15.00;;;17.80;99.90;;;;;;5043742;28;21427;-68
2022/05/21 08:35:02;;;;;;;15.57;14.10;;;17.90;99.90;;;;;;5042967;28;20933;-68
2022/05/21 08:37:33;;;;;;;15.77;14.40;;;18.50;99.90;;;;;;5042720;28;20499;-66
2022/05/21 08:40:00;;;;;;;16.43;15.23;;;18.60;99.90;;;;;;5043331;28;20459;-67
2022/05/21 08:42:33;;;;;;;17.00;15.60;;;18.70;99.90;;;;;;5043037;28;20509;-67
2022/05/21 08:45:20;;;;;;;16.33;14.63;;;18.40;99.90;;;;;;5043930;28;20644;-66
2022/05/21 08:47:55;;;;;;;16.10;14.80;;;18.70;99.90;;;;;;5042912;28;20462;-68
2022/05/21 08:50:23;;;;;;;16.27;14.87;;;18.70;99.90;;;;;;5043192;28;20457;-67
2022/05/21 08:52:57;;;;;;;16.83;15.23;;;18.50;99.90;;;;;;5043171;28;20501;-67
2022/05/21 08:55:31;;;;;;;17.80;16.47;;;18.30;99.90;;;;;;5043097;28;20508;-67
2022/05/21 08:58:02;;;;;;;17.47;15.03;;;18.10;99.90;;;;;;5044193;28;20868;-67
2022/05/21 09:00:33;;;;;;;16.37;14.87;;;18.00;99.90;;;;;;5043439;28;20462;-66
2022/05/21 09:03:00;;;;;;;16.17;14.87;;;17.50;99.90;;;;;;5043034;28;20946;-66
2022/05/21 09:05:27;;;;;;;17.27;15.70;;;17.70;99.90;;;;;;5043548;28;20485;-68
2022/05/21 09:08:08;;;;;;;16.33;15.10;;;18.00;99.90;;;;;;5042917;28;20482;-67
2022/05/21 09:10:44;;;;;;;23.50;15.37;;;17.70;99.90;;;;;;5043080;28;21785;-66
2022/05/21 09:13:19;;;;;;;16.50;15.30;;;18.00;99.90;;;;;;5041968;28;20497;-67
2022/05/21 09:18:34;;;;;;;16.37;14.87;;;18.30;99.90;;;;;;5044678;28;20533;-67
2022/05/21 09:21:06;;;;;;;15.73;14.73;;;18.20;99.90;;;;;;5041658;28;20946;-67
2022/05/21 09:23:52;;;;;;;16.97;15.53;;;18.70;99.90;;;;;;5042954;28;20730;-68
2022/05/21 09:26:21;;;;;;;16.50;15.10;;;19.50;99.90;;;;;;5043698;28;20479;-67
2022/05/21 09:28:49;;;;;;;16.23;14.80;;;19.30;99.90;;;;;;5044067;28;20455;-68
2022/05/21 09:31:24;;;;;;;16.77;15.20;;;19.30;99.90;;;;;;5043904;28;20480;-66
2022/05/21 09:33:50;;;;;;;16.90;14.83;;;19.70;99.90;;;;;;5041333;28;20546;-68
2022/05/21 09:36:22;;;;;;;17.90;16.47;;;19.90;99.90;;;;;;5042304;28;20463;-68
2022/05/21 09:38:55;;;;;;;16.67;14.93;;;19.70;99.90;;;;;;5041636;28;20529;-67
2022/05/21 09:41:26;;;;;;;20.90;15.80;;;19.50;99.90;;;;;;5058523;28;20584;-68
2022/05/21 09:46:42;;;;;;;15.93;14.53;;;19.30;99.90;;;;;;5040886;28;20485;-67
2022/05/21 09:49:19;;;;;;;15.57;14.20;;;19.40;99.90;;;;;;5041834;28;20490;-68
2022/05/21 09:51:54;;;;;;;15.93;14.60;;;19.70;99.90;;;;;;5040278;28;20536;-68
2022/05/21 09:54:26;;;;;;;16.13;14.93;;;19.90;99.90;;;;;;5041357;28;20474;-67
2022/05/21 09:56:54;;;;;;;16.40;15.17;;;20.10;99.90;;;;;;5042938;28;20758;-68
2022/05/21 09:59:24;;;;;;;16.27;14.60;;;20.60;99.90;;;;;;5040565;28;20458;-68
2022/05/21 10:01:54;;;;;;;18.40;16.13;;;20.70;99.90;;;;;;5039964;28;20796;-67
2022/05/21 10:04:27;;;;;;;14.93;13.90;;;20.90;99.90;;;;;;5040247;28;20465;-68
2022/05/21 10:07:01;;;;;;;16.10;14.60;;;21.70;99.90;;;;;;5040822;28;20928;-67
2022/05/21 10:12:23;;;;;;;17.80;15.53;;;22.00;99.90;;;;;;5040606;28;20474;-69
2022/05/21 10:14:55;;;;;;;16.77;15.20;;;22.10;99.90;;;;;;5040253;28;20482;-68
2022/05/21 10:17:30;;;;;;;17.23;16.03;;;22.30;99.90;;;;;;5041304;28;20490;-68
2022/05/21 10:20:09;;;;;;;16.77;15.67;;;21.60;99.90;;;;;;5041406;28;21717;-69
2022/05/21 10:22:44;;;;;;;15.87;14.60;;;21.30;99.90;;;;;;5040489;28;21012;-68
2022/05/21 10:25:16;;;;;;;17.40;16.10;;;20.90;99.90;;;;;;5041648;28;20568;-67
2022/05/21 10:28:01;;;;;;;17.30;15.80;;;20.20;99.90;;;;;;5040632;28;21112;-69
2022/05/21 10:30:33;;;;;;;15.73;14.07;;;19.90;99.90;;;;;;5040442;28;21408;-68
2022/05/21 10:33:24;;;;;;;17.57;14.47;;;20.60;99.90;;;;;;5041045;28;20475;-67
2022/05/21 10:35:58;;;;;;;14.10;13.00;;;21.70;99.90;;;;;;5041828;28;20559;-67
2022/05/21 10:38:49;;;;;;;15.30;13.83;;;22.40;99.90;;;;;;5040684;28;20481;-69
2022/05/21 10:41:29;;;;;;;17.13;15.53;;;22.80;99.90;;;;;;5040796;28;20462;-68
2022/05/21 10:44:10;;;;;;;17.40;15.37;;;22.80;99.90;;;;;;5040783;28;20463;-67
2022/05/21 10:46:56;;;;;;;16.50;15.10;;;22.60;99.90;;;;;;5043710;28;21079;-70
2022/05/21 10:49:45;;;;;;;16.07;14.97;;;21.90;99.90;;;;;;5045650;28;20468;-70
2022/05/21 10:52:16;;;;;;;16.70;15.30;;;21.50;99.90;;;;;;5043049;28;20497;-67
2022/05/21 10:55:14;;;;;;;15.43;14.20;;;21.50;99.90;;;;;;5044755;28;20472;-68
2022/05/21 10:57:59;;;;;;;16.73;14.50;;;21.80;99.90;;;;;;5044072;28;20497;-67
2022/05/21 11:00:32;;;;;;;16.60;15.27;;;21.90;99.90;;;;;;5043643;28;20747;-67
2022/05/21 11:03:26;;;;;;;15.60;14.50;;;22.50;99.90;;;;;;5044922;28;20479;-68
2022/05/21 11:06:15;;;;;;;16.00;14.73;;;23.10;99.90;;;;;;5039940;28;20922;-69
2022/05/21 11:08:52;;;;;;;20.87;14.73;;;23.20;99.90;;;;;;5051753;28;20455;-68
2022/05/21 11:11:29;;;;;;;15.23;13.97;;;23.20;99.90;;;;;;5075035;28;20989;-68
2022/05/21 11:14:04;;;;;;;15.27;13.70;;;23.20;99.90;;;;;;5073841;28;21319;-68
2022/05/21 11:16:38;;;;;;;14.80;13.77;;;23.20;99.90;;;;;;5062279;28;20462;-67
2022/05/21 11:19:13;;;;;;;15.23;13.93;;;23.40;99.90;;;;;;5043799;28;20500;-67
2022/05/21 11:21:44;;;;;;;16.63;15.40;;;24.10;98.20;;;;;;5084250;28;21346;-70
2022/05/21 11:24:16;;;;;;;17.20;15.80;;;24.40;98.20;;;;;;5074551;28;20836;-67
2022/05/21 11:26:48;;;;;;;17.10;15.67;;;23.90;97.90;;;;;;5046996;28;20836;-67
2022/05/21 11:29:25;;;;;;;16.93;15.50;;;23.30;97.80;;;;;;5044671;28;20593;-68
2022/05/21 11:37:29;;;;;;;16.67;15.13;;;22.50;99.70;;;;;;5043523;28;20589;-68
2022/05/21 11:39:58;;;;;;;15.40;14.10;;;22.60;98.40;;;;;;5045135;28;21520;-67
2022/05/21 11:42:27;;;;;;;17.20;15.50;;;23.10;99.10;;;;;;5043955;28;20477;-68
2022/05/21 11:44:58;;;;;;;16.20;14.40;;;23.40;98.90;;;;;;5044528;28;20516;-67
2022/05/21 11:47:50;;;;;;;15.03;14.03;;;23.40;97.70;;;;;;5042792;28;20458;-66
2022/05/21 11:50:26;;;;;;;15.20;14.20;;;23.60;97.00;;;;;;5042974;28;20550;-67
2022/05/21 11:53:08;;;;;;;15.33;14.10;;;22.90;97.50;;;;;;5045387;28;20462;-66
2022/05/21 11:56:01;;;;;;;15.90;14.80;;;23.50;97.50;;;;;;5043522;28;20519;-70
2022/05/21 11:59:13;;;;;;;15.23;14.03;;;23.50;95.40;;;;;;5041626;28;20494;-66
2022/05/21 12:01:56;;;;;;;16.03;14.80;;;23.60;96.50;;;;;;5020164;28;20462;-67
2022/05/21 12:04:45;;;;;;;16.23;15.03;;;22.80;97.70;;;;;;5044336;28;20470;-67
2022/05/21 12:07:17;;;;;;;16.67;15.17;;;22.40;98.70;;;;;;5043566;28;20600;-68
2022/05/21 12:09:59;;;;;;;15.50;14.50;;;22.10;99.10;;;;;;5043492;28;20529;-67
2022/05/21 12:12:28;;;;;;;15.60;14.67;;;22.10;99.40;;;;;;5043248;28;20489;-67
2022/05/21 12:14:57;;;;;;;17.37;15.97;;;22.30;99.80;;;;;;5042613;28;21196;-67
2022/05/21 12:17:44;;;;;;;14.67;13.87;;;22.10;98.80;;;;;;5043522;28;20477;-66
2022/05/21 12:20:12;;;;;;;15.83;14.43;;;21.80;97.80;;;;;;5042574;28;20497;-67
2022/05/21 12:22:42;;;;;;;15.73;14.87;;;22.50;97.40;;;;;;5042762;28;20852;-66
2022/05/21 12:25:13;;;;;;;17.47;16.03;;;23.70;97.60;;;;;;5069538;28;20489;-66
2022/05/21 12:27:56;;;;;;;16.17;15.00;;;24.50;94.30;;;;;;5074818;28;20945;-66
2022/05/21 12:30:29;;;;;;;15.27;13.97;;;23.90;94.90;;;;;;5076774;28;20921;-66
2022/05/21 12:32:58;;;;;;;15.77;14.47;;;23.70;95.90;;;;;;5042819;28;20988;-66
2022/05/21 12:35:42;;;;;;;15.37;13.93;;;23.50;95.60;;;;;;5044415;28;20467;-68
2022/05/21 12:38:14;;;;;;;15.27;14.37;;;23.10;96.20;;;;;;5042436;28;20491;-66
2022/05/21 12:40:51;;;;;;;14.30;13.30;;;22.80;95.80;;;;;;5042934;28;20462;-65
2022/05/21 12:43:17;;;;;;;14.67;13.40;;;22.80;96.20;;;;;;5042797;28;20740;-65
2022/05/21 12:45:48;;;;;;;14.00;12.80;;;23.60;94.50;;;;;;5042416;28;20483;-67
2022/05/21 12:48:20;;;;;;;15.17;13.73;;;24.50;96.00;;;;;;5043099;28;20603;-67
2022/05/21 12:50:50;;;;;;;16.20;15.20;;;25.00;93.70;;;;;;5042509;28;20478;-68
2022/05/21 12:53:29;;;;;;;15.87;14.83;;;25.20;92.30;;;;;;5043261;28;21107;-65
2022/05/21 12:56:01;;;;;;;16.00;14.70;;;25.30;94.20;;;;;;5043196;28;20912;-66
2022/05/21 12:58:28;;;;;;;15.30;14.00;;;24.80;94.00;;;;;;5041240;28;20859;-68
2022/05/21 13:00:57;;;;;;;15.00;13.90;;;24.70;92.60;;;;;;5042122;28;20470;-66
2022/05/21 13:03:30;;;;;;;15.90;14.40;;;25.20;89.40;;;;;;5042247;28;21253;-66
2022/05/21 13:06:00;;;;;;;15.07;14.10;;;25.50;90.80;;;;;;5042154;28;20717;-66
2022/05/21 13:08:29;;;;;;;14.43;13.73;;;25.80;90.20;;;;;;5039969;28;20465;-66
2022/05/21 13:11:01;;;;;;;16.10;14.80;;;25.70;90.60;;;;;;5041467;28;20708;-66
2022/05/21 13:13:29;;;;;;;14.83;13.93;;;24.80;89.00;;;;;;5042315;28;21213;-65
2022/05/21 13:15:59;;;;;;;14.03;13.00;;;24.30;91.50;;;;;;5041415;28;21110;-64
2022/05/21 13:18:36;;;;;;;14.80;13.80;;;24.80;93.00;;;;;;5040977;28;20478;-67
2022/05/21 13:21:13;;;;;;;15.30;13.90;;;25.70;92.30;;;;;;5041037;28;20571;-67
2022/05/21 13:24:06;;;;;;;15.73;14.33;;;25.60;84.40;;;;;;5042455;28;20566;-65